Time;durP1;ratioP1;P1;durP2;ratioP2;P2;SDS_P1;SDS_P2;PMS_P1;PMS_P2;Temp;Humidity;BMP_temperature;BMP_pressure;BME280_temperature;BME280_humidity;BME280_pressure;Samples;Min_cycle;Max_cycle;Signal;HPM_P1;HPM_P2
2022/09/18 00:01:10;;;;;;;5.77;2.50;;;13.70;99.90;;;;;;5030144;28;20948;-48
2022/09/18 00:03:37;;;;;;;3.37;2.67;;;13.50;99.90;;;;;;5031617;28;20441;-49
2022/09/18 00:06:10;;;;;;;5.70;3.27;;;13.20;99.90;;;;;;5031579;28;20812;-50
2022/09/18 00:08:38;;;;;;;2.30;2.10;;;13.50;99.90;;;;;;5031302;28;20584;-49
2022/09/18 00:11:06;;;;;;;4.27;2.93;;;13.40;99.90;;;;;;5031578;28;20473;-49
2022/09/18 00:13:32;;;;;;;6.20;3.37;;;12.90;99.90;;;;;;5031562;28;20437;-50
2022/09/18 00:15:59;;;;;;;5.90;2.70;;;13.60;99.90;;;;;;5031124;28;20539;-49
2022/09/18 00:18:26;;;;;;;5.63;3.07;;;13.40;99.90;;;;;;5031235;28;20434;-51
2022/09/18 00:20:52;;;;;;;5.97;3.20;;;13.40;99.90;;;;;;5031489;28;20486;-50
2022/09/18 00:23:20;;;;;;;7.20;3.03;;;13.40;99.90;;;;;;5031583;28;20443;-49
2022/09/18 00:25:47;;;;;;;5.13;3.30;;;13.40;99.90;;;;;;5031399;28;20466;-49
2022/09/18 00:28:14;;;;;;;3.23;2.43;;;13.40;99.90;;;;;;5030154;28;20942;-52
2022/09/18 00:30:40;;;;;;;4.57;2.90;;;13.40;99.90;;;;;;5029877;28;20464;-48
2022/09/18 00:33:07;;;;;;;4.00;2.40;;;13.40;99.90;;;;;;5029599;28;20450;-49
2022/09/18 00:35:33;;;;;;;4.97;2.90;;;13.50;99.90;;;;;;5031117;28;20481;-49
2022/09/18 00:38:00;;;;;;;4.30;2.90;;;13.30;99.90;;;;;;5031372;28;20438;-49
2022/09/18 00:40:28;;;;;;;4.73;2.90;;;13.40;99.90;;;;;;5032375;28;20454;-49
2022/09/18 00:42:54;;;;;;;4.23;2.53;;;13.50;99.90;;;;;;5034150;28;20453;-49
2022/09/18 00:45:21;;;;;;;4.43;2.10;;;12.70;99.90;;;;;;5035177;28;20908;-50
2022/09/18 00:47:50;;;;;;;5.90;1.67;;;13.20;99.90;;;;;;5035293;28;20981;-50
2022/09/18 00:50:20;;;;;;;2.50;1.90;;;13.20;99.90;;;;;;5033309;28;20453;-53
2022/09/18 00:52:51;;;;;;;2.77;1.93;;;13.20;99.90;;;;;;5035186;28;20442;-52
2022/09/18 00:55:23;;;;;;;2.87;2.10;;;13.10;99.90;;;;;;5035163;28;20799;-50
2022/09/18 00:57:54;;;;;;;5.50;2.40;;;13.10;99.90;;;;;;5033808;28;20450;-50
2022/09/18 01:00:22;;;;;;;3.27;1.63;;;13.10;99.90;;;;;;5033406;28;20452;-50
2022/09/18 01:02:49;;;;;;;2.40;1.50;;;13.10;99.90;;;;;;5033412;28;20450;-51
2022/09/18 01:05:19;;;;;;;2.90;1.50;;;13.20;99.90;;;;;;5035030;28;20500;-49
2022/09/18 01:07:58;;;;;;;2.30;1.40;;;13.00;99.90;;;;;;5034979;28;20575;-49
2022/09/18 01:10:40;;;;;;;3.80;1.50;;;12.60;99.90;;;;;;5034820;28;20848;-49
2022/09/18 01:13:19;;;;;;;3.50;1.23;;;12.90;99.90;;;;;;5034958;28;20469;-50
2022/09/18 01:15:52;;;;;;;1.70;1.30;;;13.00;99.90;;;;;;5035063;28;20444;-49
2022/09/18 01:18:26;;;;;;;1.83;1.20;;;12.70;99.90;;;;;;5035346;28;20929;-49
2022/09/18 01:21:04;;;;;;;4.03;2.07;;;12.90;99.90;;;;;;5034866;28;20926;-48
2022/09/18 01:23:57;;;;;;;2.90;0.90;;;12.70;99.90;;;;;;5034824;28;20449;-48
2022/09/18 01:26:44;;;;;;;2.13;1.00;;;13.00;99.90;;;;;;5034736;28;20479;-48
2022/09/18 01:29:23;;;;;;;2.63;1.00;;;12.70;99.90;;;;;;5033264;28;20440;-49
2022/09/18 01:31:54;;;;;;;1.53;1.03;;;12.60;99.90;;;;;;5033725;28;20630;-51
2022/09/18 01:34:25;;;;;;;1.40;0.80;;;12.70;99.90;;;;;;5034494;28;20481;-48
2022/09/18 01:36:58;;;;;;;1.80;0.90;;;12.70;99.90;;;;;;5035233;28;20475;-50
2022/09/18 01:39:34;;;;;;;1.87;1.00;;;12.60;99.90;;;;;;5032950;28;20457;-49
2022/09/18 01:42:03;;;;;;;5.33;1.00;;;12.80;99.90;;;;;;5033205;28;20550;-49
2022/09/18 01:44:33;;;;;;;1.40;0.80;;;12.60;99.90;;;;;;5034566;28;20530;-48
2022/09/18 01:47:08;;;;;;;1.23;0.67;;;12.80;99.90;;;;;;5032876;28;20467;-48
2022/09/18 01:49:40;;;;;;;3.40;1.20;;;13.00;99.90;;;;;;5032579;28;20450;-51
2022/09/18 01:52:10;;;;;;;2.70;1.17;;;12.30;99.90;;;;;;5033302;28;20437;-49
2022/09/18 01:54:44;;;;;;;1.27;0.90;;;12.60;99.90;;;;;;5032991;28;20453;-50
2022/09/18 01:57:15;;;;;;;1.40;0.70;;;12.50;99.90;;;;;;5032670;28;20843;-49
2022/09/18 01:59:48;;;;;;;1.60;0.80;;;12.50;99.90;;;;;;5032548;28;20499;-49
2022/09/18 02:02:19;;;;;;;1.67;0.80;;;12.30;99.90;;;;;;5032164;28;20460;-49
2022/09/18 02:04:48;;;;;;;2.50;0.90;;;12.30;99.90;;;;;;5032695;28;20444;-49
2022/09/18 02:07:24;;;;;;;1.50;1.00;;;12.40;99.90;;;;;;5034015;28;20836;-50
2022/09/18 02:09:50;;;;;;;1.50;1.03;;;12.10;99.90;;;;;;5032255;28;20552;-51
2022/09/18 02:12:21;;;;;;;2.73;0.90;;;12.40;99.90;;;;;;5033852;28;20451;-49
2022/09/18 02:15:23;;;;;;;1.57;0.80;;;12.50;99.90;;;;;;5032282;28;20467;-50
2022/09/18 02:17:58;;;;;;;1.53;0.80;;;12.60;99.90;;;;;;4975687;28;20452;-50
2022/09/18 02:20:46;;;;;;;1.20;0.90;;;12.50;99.90;;;;;;4984833;28;20449;-50
2022/09/18 02:23:14;;;;;;;2.63;1.20;;;12.50;99.90;;;;;;5032103;28;20457;-49
2022/09/18 02:25:45;;;;;;;1.83;1.17;;;12.60;99.90;;;;;;5033463;28;20463;-49
2022/09/18 02:28:14;;;;;;;1.73;0.93;;;12.40;99.90;;;;;;5032086;28;21039;-49
2022/09/18 02:30:42;;;;;;;1.70;1.40;;;12.60;99.90;;;;;;5031451;28;20500;-51
2022/09/18 02:33:29;;;;;;;2.20;1.30;;;12.90;99.90;;;;;;5032058;28;20461;-50
2022/09/18 02:36:09;;;;;;;2.57;1.00;;;12.50;99.90;;;;;;5031877;28;20480;-50
2022/09/18 02:38:44;;;;;;;2.70;1.10;;;12.50;99.90;;;;;;5033041;28;20890;-50
2022/09/18 02:41:22;;;;;;;1.60;1.10;;;12.30;99.90;;;;;;5032132;28;20547;-49
2022/09/18 02:43:54;;;;;;;2.70;1.20;;;12.30;99.90;;;;;;5031947;28;20514;-51
2022/09/18 02:46:32;;;;;;;3.43;1.20;;;12.10;99.90;;;;;;5031590;28;20978;-50
2022/09/18 02:49:09;;;;;;;2.93;1.80;;;12.50;99.90;;;;;;5032531;28;20520;-49
2022/09/18 02:51:44;;;;;;;6.47;1.60;;;12.60;99.90;;;;;;5031925;28;20471;-49
2022/09/18 02:54:15;;;;;;;2.30;1.40;;;12.20;99.90;;;;;;5031619;28;20538;-50
2022/09/18 02:56:48;;;;;;;3.07;1.57;;;12.30;99.90;;;;;;5031790;28;20472;-51
2022/09/18 02:59:20;;;;;;;5.60;1.90;;;12.20;99.90;;;;;;5031249;28;20559;-51
2022/09/18 03:01:54;;;;;;;6.20;2.40;;;12.80;99.90;;;;;;5031302;28;20459;-52
2022/09/18 03:04:25;;;;;;;8.47;2.10;;;12.50;99.90;;;;;;5031197;28;20522;-50
2022/09/18 03:07:03;;;;;;;3.17;2.27;;;12.50;99.90;;;;;;5031138;28;20480;-49
2022/09/18 03:09:33;;;;;;;6.93;1.90;;;12.00;99.90;;;;;;5030907;28;20443;-48
2022/09/18 03:12:00;;;;;;;9.50;2.17;;;12.00;99.90;;;;;;5031392;28;20540;-50
2022/09/18 03:14:32;;;;;;;6.47;2.20;;;12.50;99.90;;;;;;5031602;28;20929;-48
2022/09/18 03:16:58;;;;;;;6.03;2.50;;;12.20;99.90;;;;;;5031048;28;20557;-49
2022/09/18 03:19:26;;;;;;;8.53;3.00;;;12.30;99.90;;;;;;5030837;28;20459;-48
2022/09/18 03:21:56;;;;;;;7.50;2.70;;;12.40;99.90;;;;;;5031051;28;20518;-49
2022/09/18 03:24:24;;;;;;;10.67;2.90;;;12.00;99.90;;;;;;5031189;28;20830;-49
2022/09/18 03:26:52;;;;;;;6.87;2.93;;;12.40;99.90;;;;;;5031017;28;21000;-48
2022/09/18 03:29:20;;;;;;;8.03;2.30;;;12.40;99.90;;;;;;5030627;28;20455;-48
2022/09/18 03:31:47;;;;;;;17.77;5.53;;;12.40;99.90;;;;;;5030797;28;20881;-49
2022/09/18 03:34:16;;;;;;;9.37;3.00;;;12.40;99.90;;;;;;5030973;28;20471;-48
2022/09/18 03:36:46;;;;;;;17.53;3.60;;;12.20;99.90;;;;;;5030617;28;20907;-49
2022/09/18 03:39:14;;;;;;;11.60;3.10;;;12.40;99.90;;;;;;5030476;28;20450;-48
2022/09/18 03:41:41;;;;;;;10.00;2.77;;;12.40;99.90;;;;;;5032016;28;20518;-48
2022/09/18 03:44:08;;;;;;;9.80;2.40;;;12.50;99.90;;;;;;5030807;28;20442;-49
2022/09/18 03:46:39;;;;;;;17.60;4.67;;;12.30;99.90;;;;;;5032149;28;20553;-50
2022/09/18 03:49:05;;;;;;;11.10;3.23;;;12.40;99.90;;;;;;5030243;28;20867;-49
2022/09/18 03:51:34;;;;;;;10.00;2.60;;;12.00;99.90;;;;;;5030595;28;20447;-48
2022/09/18 03:54:02;;;;;;;12.67;3.20;;;12.50;99.90;;;;;;5030513;28;20445;-51
2022/09/18 03:56:29;;;;;;;9.63;3.10;;;12.40;99.90;;;;;;5032014;28;20450;-50
2022/09/18 03:59:11;;;;;;;8.67;3.17;;;12.60;99.90;;;;;;5030177;28;20453;-50
2022/09/18 04:01:51;;;;;;;13.87;4.20;;;12.50;99.90;;;;;;5030398;28;20447;-51
2022/09/18 04:04:26;;;;;;;14.70;3.30;;;12.00;99.90;;;;;;5032043;28;20541;-49
2022/09/18 04:07:31;;;;;;;26.60;5.13;;;12.30;99.90;;;;;;5009516;28;21015;-51
2022/09/18 04:10:21;;;;;;;21.83;4.20;;;12.30;99.90;;;;;;5008881;28;20459;-49
2022/09/18 04:12:48;;;;;;;11.57;3.63;;;12.40;99.90;;;;;;5022510;28;20457;-50
2022/09/18 04:15:20;;;;;;;12.83;3.67;;;12.40;99.90;;;;;;5029702;28;20463;-49
2022/09/18 04:17:47;;;;;;;10.70;3.77;;;12.40;99.90;;;;;;5030310;28;20553;-49
2022/09/18 04:20:14;;;;;;;10.47;2.87;;;12.50;99.90;;;;;;5029977;28;20438;-49
2022/09/18 04:22:42;;;;;;;9.20;2.93;;;12.40;99.90;;;;;;5030355;28;20452;-49
2022/09/18 04:25:09;;;;;;;11.27;3.97;;;12.30;99.90;;;;;;5030246;28;20455;-49
2022/09/18 04:27:37;;;;;;;11.23;3.70;;;12.40;99.90;;;;;;5030075;28;20618;-52
2022/09/18 04:30:05;;;;;;;10.47;3.30;;;12.30;99.90;;;;;;5029746;28;20459;-52
2022/09/18 04:32:33;;;;;;;11.87;3.77;;;12.30;99.90;;;;;;5030173;28;20527;-48
2022/09/18 04:35:00;;;;;;;9.27;3.27;;;12.20;99.90;;;;;;5029873;28;20477;-51
2022/09/18 04:37:30;;;;;;;11.70;3.90;;;12.40;99.90;;;;;;5030683;28;20493;-49
2022/09/18 04:39:58;;;;;;;12.47;3.90;;;12.40;99.90;;;;;;5029747;28;20568;-48
2022/09/18 04:42:24;;;;;;;11.70;3.40;;;12.20;99.90;;;;;;5031330;28;20437;-49
2022/09/18 04:44:52;;;;;;;13.33;3.27;;;12.10;99.90;;;;;;5029949;28;20481;-49
2022/09/18 04:47:20;;;;;;;12.97;3.10;;;12.50;99.90;;;;;;5029796;28;20529;-50
2022/09/18 04:49:47;;;;;;;17.23;3.47;;;12.50;99.90;;;;;;5029573;28;20446;-49
2022/09/18 04:52:13;;;;;;;8.50;3.30;;;12.50;99.90;;;;;;5029985;28;20467;-49
2022/09/18 04:54:40;;;;;;;11.27;3.77;;;12.20;99.90;;;;;;5029921;28;20450;-50
2022/09/18 04:57:08;;;;;;;14.47;4.23;;;12.20;99.90;;;;;;5029957;28;20485;-49
2022/09/18 04:59:35;;;;;;;14.20;3.90;;;12.20;99.90;;;;;;5029550;28;20592;-48
2022/09/18 05:02:04;;;;;;;13.43;3.83;;;12.20;99.90;;;;;;5031285;28;20927;-48
2022/09/18 05:04:31;;;;;;;14.83;4.27;;;12.20;99.90;;;;;;5029782;28;20685;-50
2022/09/18 05:07:05;;;;;;;12.57;3.80;;;12.20;99.90;;;;;;5029659;28;20861;-50
2022/09/18 05:09:35;;;;;;;9.03;3.30;;;12.10;99.90;;;;;;5029466;28;20493;-50
2022/09/18 05:12:02;;;;;;;11.10;3.10;;;12.20;99.90;;;;;;5029776;28;20963;-49
2022/09/18 05:14:28;;;;;;;13.00;3.10;;;12.20;99.90;;;;;;5029517;28;20453;-49
2022/09/18 05:17:00;;;;;;;6.90;2.93;;;12.40;99.90;;;;;;5029606;28;20526;-50
2022/09/18 05:19:31;;;;;;;9.87;3.13;;;12.20;99.90;;;;;;5029303;28;20440;-50
2022/09/18 05:22:09;;;;;;;7.40;3.27;;;12.30;99.90;;;;;;5029390;28;20547;-50
2022/09/18 05:24:40;;;;;;;13.23;3.20;;;12.40;99.90;;;;;;5029800;28;20458;-50
2022/09/18 05:27:07;;;;;;;8.80;2.87;;;12.20;99.90;;;;;;5031487;28;20998;-49
2022/09/18 05:29:34;;;;;;;11.77;3.37;;;12.00;99.90;;;;;;5032587;28;20479;-50
2022/09/18 05:32:09;;;;;;;10.47;3.03;;;12.40;99.90;;;;;;5033178;28;20500;-51
2022/09/18 05:34:38;;;;;;;14.47;2.97;;;12.20;99.90;;;;;;5033079;28;20466;-49
2022/09/18 05:37:06;;;;;;;11.33;3.83;;;12.30;99.90;;;;;;5033026;28;20510;-49
2022/09/18 05:39:33;;;;;;;16.10;3.77;;;12.80;99.90;;;;;;5032856;28;20996;-49
2022/09/18 05:42:02;;;;;;;11.03;3.70;;;12.40;99.90;;;;;;5033096;28;20960;-51
2022/09/18 05:44:28;;;;;;;10.50;3.40;;;12.50;99.90;;;;;;5033078;28;20976;-49
2022/09/18 05:46:56;;;;;;;8.00;3.57;;;12.60;99.90;;;;;;5032995;28;20475;-50
2022/09/18 05:49:22;;;;;;;10.47;2.80;;;12.80;99.90;;;;;;5033863;28;20479;-49
2022/09/18 05:51:50;;;;;;;14.87;2.60;;;12.70;99.90;;;;;;5032810;28;20448;-48
2022/09/18 05:54:20;;;;;;;9.73;2.80;;;12.50;99.90;;;;;;5032719;28;20935;-49
2022/09/18 05:56:48;;;;;;;15.87;3.10;;;12.50;99.90;;;;;;5032507;28;20487;-49
2022/09/18 05:59:15;;;;;;;8.07;2.63;;;12.50;99.90;;;;;;5032303;28;20819;-49
2022/09/18 06:01:46;;;;;;;12.70;3.00;;;12.40;99.90;;;;;;5032582;28;20874;-49
2022/09/18 06:04:21;;;;;;;13.73;3.33;;;12.40;99.90;;;;;;5032714;28;20463;-49
2022/09/18 06:06:56;;;;;;;9.20;3.53;;;12.90;99.90;;;;;;5032537;28;20476;-49
2022/09/18 06:09:23;;;;;;;7.60;3.00;;;12.50;99.90;;;;;;5032244;28;20833;-49
2022/09/18 06:11:49;;;;;;;10.57;2.80;;;12.60;99.90;;;;;;5032542;28;20448;-49
2022/09/18 06:14:17;;;;;;;16.40;3.00;;;12.20;99.90;;;;;;5032376;28;20455;-50
2022/09/18 06:16:45;;;;;;;10.63;3.17;;;11.90;99.90;;;;;;5032214;28;20468;-50
2022/09/18 06:19:13;;;;;;;6.00;2.30;;;12.40;99.90;;;;;;5032075;28;20459;-50
2022/09/18 06:21:42;;;;;;;10.73;2.80;;;12.40;99.90;;;;;;5032363;28;20441;-49
2022/09/18 06:24:13;;;;;;;7.93;2.37;;;12.40;99.90;;;;;;5032191;28;20950;-49
2022/09/18 06:27:06;;;;;;;9.83;2.90;;;12.30;99.90;;;;;;5033062;28;20475;-50
2022/09/18 06:29:33;;;;;;;9.73;2.30;;;12.40;99.90;;;;;;5031705;28;20510;-50
2022/09/18 06:32:06;;;;;;;9.10;2.60;;;12.50;99.90;;;;;;5032183;28;20486;-51
2022/09/18 06:34:33;;;;;;;11.10;2.17;;;12.50;99.90;;;;;;5032102;28;20930;-51
2022/09/18 06:37:02;;;;;;;7.20;2.67;;;12.20;99.90;;;;;;5031784;28;20479;-49
2022/09/18 06:39:43;;;;;;;16.33;3.00;;;12.50;99.90;;;;;;5032735;28;20483;-50
2022/09/18 06:42:17;;;;;;;9.27;2.53;;;12.70;99.90;;;;;;5032141;28;20792;-50
2022/09/18 06:45:03;;;;;;;11.30;2.97;;;12.80;99.90;;;;;;5032001;28;20536;-50
2022/09/18 06:47:30;;;;;;;11.83;3.03;;;12.60;99.90;;;;;;5033350;28;20443;-50
2022/09/18 06:49:57;;;;;;;11.67;2.80;;;12.80;99.90;;;;;;5031562;28;20889;-49
2022/09/18 06:52:24;;;;;;;10.97;2.93;;;12.70;99.90;;;;;;5031893;28;20456;-50
2022/09/18 06:54:56;;;;;;;9.30;2.93;;;12.70;99.90;;;;;;5031706;28;20464;-49
2022/09/18 06:57:31;;;;;;;13.93;3.37;;;12.90;99.90;;;;;;5031847;28;20449;-49
2022/09/18 06:59:57;;;;;;;7.27;2.13;;;13.20;99.90;;;;;;5031262;28;20450;-49
2022/09/18 07:02:24;;;;;;;8.53;2.90;;;12.80;99.90;;;;;;5031630;28;20916;-49
2022/09/18 07:05:14;;;;;;;14.87;2.90;;;12.80;99.90;;;;;;5032535;28;20538;-50
2022/09/18 07:07:45;;;;;;;7.93;2.77;;;12.70;99.90;;;;;;5031213;28;20462;-49
2022/09/18 07:10:13;;;;;;;8.10;2.70;;;12.80;99.90;;;;;;5031012;28;20485;-50
2022/09/18 07:12:47;;;;;;;9.40;2.77;;;12.60;99.90;;;;;;5031292;28;20446;-49
2022/09/18 07:15:14;;;;;;;9.17;2.67;;;13.20;99.90;;;;;;5031338;28;20571;-49
2022/09/18 07:17:42;;;;;;;10.40;2.40;;;12.90;99.90;;;;;;5031216;28;20538;-49
2022/09/18 07:20:10;;;;;;;8.43;2.57;;;12.70;99.90;;;;;;5030727;28;20450;-49
2022/09/18 07:22:42;;;;;;;9.13;2.07;;;12.90;99.90;;;;;;5030916;28;20484;-49
2022/09/18 07:25:10;;;;;;;8.40;2.17;;;12.90;99.90;;;;;;5032090;28;20437;-49
2022/09/18 07:27:42;;;;;;;10.60;2.63;;;13.10;99.90;;;;;;5031203;28;20470;-49
2022/09/18 07:30:10;;;;;;;15.20;2.63;;;12.90;99.90;;;;;;5030500;28;20485;-48
2022/09/18 07:32:37;;;;;;;8.40;2.23;;;13.00;99.90;;;;;;5030899;28;20456;-49
2022/09/18 07:35:11;;;;;;;11.80;2.83;;;13.00;99.90;;;;;;5030532;28;20540;-49
2022/09/18 07:37:38;;;;;;;7.10;2.47;;;12.50;99.90;;;;;;5030856;28;20509;-48
2022/09/18 07:40:16;;;;;;;5.97;1.90;;;12.80;99.90;;;;;;5030093;28;20562;-50
2022/09/18 07:43:07;;;;;;;10.43;2.70;;;12.80;99.90;;;;;;5030542;28;20458;-48
2022/09/18 07:45:35;;;;;;;8.80;2.30;;;13.00;99.90;;;;;;5030481;28;20475;-49
2022/09/18 07:48:03;;;;;;;10.37;2.40;;;13.10;99.90;;;;;;5030718;28;20446;-50
2022/09/18 07:50:32;;;;;;;9.93;3.57;;;13.00;99.90;;;;;;5029376;28;20440;-48
2022/09/18 07:53:02;;;;;;;4.77;2.30;;;13.00;99.90;;;;;;5030659;28;20458;-49
2022/09/18 07:55:34;;;;;;;13.10;2.10;;;13.00;99.90;;;;;;5030492;28;20479;-49
2022/09/18 07:58:04;;;;;;;6.87;2.70;;;13.00;99.90;;;;;;5030395;28;20454;-49
2022/09/18 08:00:51;;;;;;;10.87;2.40;;;13.00;99.90;;;;;;5031953;28;20782;-50
2022/09/18 08:03:19;;;;;;;16.30;3.20;;;13.10;99.90;;;;;;5030448;28;20460;-50
2022/09/18 08:06:12;;;;;;;10.03;2.33;;;13.10;99.90;;;;;;5023193;28;20462;-50
2022/09/18 08:08:50;;;;;;;9.97;2.43;;;12.90;99.90;;;;;;5029936;28;20504;-50
2022/09/18 08:11:35;;;;;;;13.73;2.40;;;13.40;99.90;;;;;;5031334;28;20434;-51
2022/09/18 08:14:09;;;;;;;8.70;2.87;;;13.30;99.90;;;;;;5031573;28;20760;-50
2022/09/18 08:16:43;;;;;;;6.17;2.40;;;12.90;99.90;;;;;;5029917;28;20477;-50
2022/09/18 08:19:15;;;;;;;6.40;2.30;;;13.50;99.90;;;;;;5029605;28;20481;-50
2022/09/18 08:21:47;;;;;;;9.50;3.70;;;13.60;99.90;;;;;;5031779;28;20558;-49
2022/09/18 08:24:16;;;;;;;15.20;2.87;;;13.80;99.90;;;;;;5029934;28;20449;-51
2022/09/18 08:26:44;;;;;;;6.67;2.30;;;13.80;99.90;;;;;;5029989;28;20464;-49
2022/09/18 08:29:17;;;;;;;10.33;2.53;;;13.50;99.90;;;;;;5029629;28;20567;-48
2022/09/18 08:31:46;;;;;;;11.87;2.00;;;14.00;99.90;;;;;;5030051;28;20816;-49
2022/09/18 08:34:13;;;;;;;8.90;2.47;;;13.80;99.90;;;;;;5031461;28;20805;-50
2022/09/18 08:36:40;;;;;;;15.10;3.23;;;13.90;99.90;;;;;;5029549;28;20530;-49
2022/09/18 08:39:14;;;;;;;8.73;2.43;;;14.00;99.90;;;;;;5029588;28;20522;-49
2022/09/18 08:42:05;;;;;;;6.83;2.50;;;14.00;99.90;;;;;;5029980;28;20458;-49
2022/09/18 08:44:41;;;;;;;7.90;1.57;;;14.10;99.90;;;;;;5029921;28;20553;-50
2022/09/18 08:47:13;;;;;;;8.70;2.07;;;14.00;99.90;;;;;;5029692;28;21221;-50
2022/09/18 08:49:46;;;;;;;13.90;2.17;;;13.90;99.90;;;;;;5029465;28;20510;-50
2022/09/18 08:52:17;;;;;;;6.53;2.53;;;14.20;99.90;;;;;;5029546;28;20451;-51
2022/09/18 08:54:54;;;;;;;6.33;2.00;;;14.30;99.90;;;;;;5029524;28;20486;-49
2022/09/18 08:57:35;;;;;;;9.10;2.23;;;14.20;99.90;;;;;;5031264;28;20444;-49
2022/09/18 09:00:15;;;;;;;11.40;2.53;;;14.40;99.90;;;;;;5028961;28;20455;-50
2022/09/18 09:02:50;;;;;;;10.87;2.63;;;14.30;99.90;;;;;;5032820;28;20449;-50
2022/09/18 09:05:20;;;;;;;9.87;2.87;;;14.60;99.90;;;;;;5033624;28;20478;-50
2022/09/18 09:08:03;;;;;;;9.40;2.30;;;14.50;99.90;;;;;;5033309;28;20458;-50
2022/09/18 09:10:41;;;;;;;11.47;2.53;;;14.40;99.90;;;;;;5033132;28;20477;-50
2022/09/18 09:13:44;;;;;;;8.50;2.30;;;14.50;99.90;;;;;;5033308;28;20455;-49
2022/09/18 09:16:15;;;;;;;12.87;2.43;;;14.80;99.90;;;;;;5033344;28;20536;-48
2022/09/18 09:18:57;;;;;;;11.70;2.90;;;14.70;99.90;;;;;;5032923;28;20451;-48
2022/09/18 09:21:40;;;;;;;8.60;2.57;;;15.00;99.90;;;;;;5032972;28;20454;-49
2022/09/18 09:24:20;;;;;;;12.70;2.00;;;15.10;99.90;;;;;;5033422;28;20808;-49
2022/09/18 09:27:22;;;;;;;7.73;1.70;;;15.20;99.90;;;;;;5014831;28;20470;-49
2022/09/18 09:30:11;;;;;;;6.50;2.00;;;15.30;99.90;;;;;;5032644;28;20480;-49
2022/09/18 09:32:49;;;;;;;7.57;2.53;;;15.40;99.90;;;;;;5032925;28;20459;-50
2022/09/18 09:35:53;;;;;;;5.93;1.90;;;15.40;99.90;;;;;;5021885;28;20970;-50
2022/09/18 09:38:38;;;;;;;7.33;1.97;;;15.40;99.90;;;;;;5032868;28;20449;-50
2022/09/18 09:41:15;;;;;;;6.60;1.93;;;15.50;99.60;;;;;;5034197;28;20683;-50
2022/09/18 09:43:48;;;;;;;11.57;2.33;;;15.90;99.70;;;;;;5033427;28;20517;-49
2022/09/18 09:46:22;;;;;;;5.30;1.83;;;15.30;99.30;;;;;;5034385;28;20464;-50
2022/09/18 09:48:53;;;;;;;5.50;2.20;;;15.70;99.30;;;;;;5032723;28;20442;-50
2022/09/18 09:51:28;;;;;;;8.97;2.23;;;15.90;99.20;;;;;;5032637;28;20459;-51
2022/09/18 09:53:56;;;;;;;11.77;2.53;;;16.00;99.00;;;;;;5032436;28;20509;-50
2022/09/18 09:56:30;;;;;;;6.10;2.10;;;15.80;98.80;;;;;;5032553;28;20563;-51
2022/09/18 09:59:02;;;;;;;7.23;2.27;;;15.80;98.10;;;;;;5032530;28;20459;-49
2022/09/18 10:01:34;;;;;;;5.70;2.13;;;16.20;98.50;;;;;;5032890;28;20614;-50
2022/09/18 10:04:18;;;;;;;6.33;1.70;;;15.80;98.10;;;;;;5032748;28;20544;-49
2022/09/18 10:06:56;;;;;;;11.17;3.60;;;15.80;98.00;;;;;;5032132;28;20470;-49
2022/09/18 10:09:34;;;;;;;5.70;1.93;;;15.50;98.00;;;;;;5032110;28;20481;-49
2022/09/18 10:12:11;;;;;;;5.33;2.40;;;15.70;98.30;;;;;;5032452;28;20466;-51
2022/09/18 10:14:42;;;;;;;4.60;1.70;;;15.70;98.40;;;;;;5031686;28;20480;-49
2022/09/18 10:17:12;;;;;;;7.90;2.90;;;15.70;98.70;;;;;;5032409;28;21010;-50
2022/09/18 10:19:42;;;;;;;7.03;2.00;;;15.60;98.40;;;;;;5033096;28;20435;-50
2022/09/18 10:22:14;;;;;;;7.37;1.97;;;15.60;98.30;;;;;;5031563;28;21098;-50
2022/09/18 10:24:50;;;;;;;6.07;1.90;;;15.70;98.50;;;;;;5031893;28;20557;-50
2022/09/18 10:27:18;;;;;;;5.07;1.40;;;15.40;98.30;;;;;;5032399;28;20462;-51
2022/09/18 10:29:45;;;;;;;6.10;1.53;;;15.70;98.50;;;;;;5031609;28;20483;-51
2022/09/18 10:32:32;;;;;;;7.57;1.97;;;16.40;98.60;;;;;;5032366;28;20439;-49
2022/09/18 10:35:01;;;;;;;6.20;1.97;;;16.30;97.90;;;;;;5031494;28;20517;-50
2022/09/18 10:37:50;;;;;;;10.20;2.50;;;15.90;97.20;;;;;;5032119;28;20455;-50
2022/09/18 10:40:31;;;;;;;6.77;1.90;;;16.00;97.60;;;;;;5030423;28;20465;-50
2022/09/18 10:43:00;;;;;;;5.83;1.90;;;16.40;98.40;;;;;;5031446;28;20482;-52
2022/09/18 10:45:31;;;;;;;9.57;2.27;;;15.80;98.60;;;;;;5031364;28;20533;-50
2022/09/18 10:48:18;;;;;;;6.10;2.33;;;15.80;98.70;;;;;;5031443;28;20463;-50
2022/09/18 10:50:52;;;;;;;5.20;1.87;;;15.80;98.60;;;;;;5030716;28;20493;-50
2022/09/18 10:53:29;;;;;;;5.93;2.87;;;15.80;98.40;;;;;;5032136;28;20829;-49
2022/09/18 10:56:03;;;;;;;6.50;1.80;;;15.80;97.80;;;;;;5031574;28;20533;-51
2022/09/18 10:58:32;;;;;;;4.40;1.30;;;16.00;97.40;;;;;;5031119;28;20535;-50
2022/09/18 11:01:02;;;;;;;4.63;1.40;;;15.70;96.90;;;;;;5031240;28;20458;-50
2022/09/18 11:03:40;;;;;;;5.60;1.53;;;15.90;96.20;;;;;;5031400;28;20547;-49
2022/09/18 11:06:14;;;;;;;9.63;1.90;;;15.90;95.80;;;;;;5031408;28;20499;-49
2022/09/18 11:08:47;;;;;;;4.87;1.83;;;16.10;95.80;;;;;;5030981;28;20861;-53
2022/09/18 11:11:25;;;;;;;6.77;1.87;;;16.00;95.60;;;;;;5030735;28;20479;-51
2022/09/18 11:13:58;;;;;;;5.63;1.43;;;16.00;95.20;;;;;;5031493;28;20447;-51
2022/09/18 11:16:29;;;;;;;4.33;2.20;;;16.00;95.60;;;;;;5030908;28;20511;-51
2022/09/18 11:19:06;;;;;;;5.40;1.70;;;15.80;95.20;;;;;;5030544;28;20474;-51
2022/09/18 11:21:41;;;;;;;7.70;2.10;;;16.10;95.20;;;;;;5030640;28;20451;-51
2022/09/18 11:24:20;;;;;;;6.30;2.10;;;16.20;95.10;;;;;;5030900;28;20450;-52
2022/09/18 11:26:50;;;;;;;7.23;2.83;;;16.10;94.80;;;;;;5030787;28;20476;-50
2022/09/18 11:29:22;;;;;;;6.60;2.20;;;15.80;94.60;;;;;;5030614;28;20855;-50
2022/09/18 11:31:53;;;;;;;5.70;1.40;;;15.60;94.50;;;;;;5031901;28;20438;-51
2022/09/18 11:34:27;;;;;;;9.20;1.80;;;15.80;94.70;;;;;;5030600;28;20478;-51
2022/09/18 11:36:58;;;;;;;4.17;1.37;;;16.00;95.10;;;;;;5030729;28;20490;-50
2022/09/18 11:39:33;;;;;;;4.70;1.87;;;15.80;95.30;;;;;;5030530;28;20514;-52
2022/09/18 11:42:08;;;;;;;4.20;1.33;;;15.90;95.70;;;;;;5030756;28;20443;-50
2022/09/18 11:44:36;;;;;;;2.73;1.80;;;16.20;95.80;;;;;;5030552;28;20455;-51
2022/09/18 11:47:24;;;;;;;3.43;1.60;;;16.20;95.40;;;;;;5030459;28;20464;-50
2022/09/18 11:49:57;;;;;;;4.63;1.50;;;15.80;94.50;;;;;;5029939;28;20994;-52
2022/09/18 11:52:29;;;;;;;4.00;2.00;;;15.70;94.70;;;;;;5031669;28;20520;-50
2022/09/18 11:55:07;;;;;;;4.30;1.70;;;15.70;94.30;;;;;;5030260;28;20483;-50
2022/09/18 11:57:39;;;;;;;7.00;1.50;;;15.70;94.40;;;;;;5030771;28;20948;-49
2022/09/18 12:00:14;;;;;;;6.00;2.17;;;15.50;94.20;;;;;;5029834;28;20854;-50
2022/09/18 12:02:46;;;;;;;4.97;2.03;;;15.60;94.50;;;;;;5031464;28;20814;-50
2022/09/18 12:05:20;;;;;;;4.43;1.50;;;15.60;94.70;;;;;;5030175;28;20475;-49
2022/09/18 12:08:01;;;;;;;7.30;2.30;;;15.60;94.90;;;;;;5029953;28;20486;-50
2022/09/18 12:10:52;;;;;;;5.03;1.63;;;15.70;94.70;;;;;;5029622;28;20996;-50
2022/09/18 12:13:32;;;;;;;6.30;1.87;;;15.80;94.30;;;;;;5029908;28;20452;-51
2022/09/18 12:16:08;;;;;;;8.50;2.40;;;16.10;94.60;;;;;;5029547;28;20470;-50
2022/09/18 12:18:49;;;;;;;3.93;1.50;;;16.00;94.50;;;;;;5029560;28;20458;-50
2022/09/18 12:21:21;;;;;;;4.63;1.33;;;16.20;94.70;;;;;;5031272;28;20439;-50
2022/09/18 12:23:49;;;;;;;4.73;1.40;;;16.10;95.20;;;;;;5029728;28;20944;-49
2022/09/18 12:26:26;;;;;;;5.07;2.03;;;15.70;95.40;;;;;;5030292;28;20475;-49
2022/09/18 12:29:13;;;;;;;7.37;2.53;;;15.70;95.50;;;;;;5029375;28;20504;-49
2022/09/18 12:31:47;;;;;;;3.90;1.37;;;15.60;95.50;;;;;;5031361;28;20786;-51
2022/09/18 12:34:21;;;;;;;3.97;1.60;;;15.60;95.80;;;;;;5031681;28;20503;-50
2022/09/18 12:37:08;;;;;;;2.67;1.30;;;15.80;95.80;;;;;;5035268;28;21189;-50
2022/09/18 12:40:02;;;;;;;2.37;1.00;;;15.60;95.60;;;;;;5036739;28;20430;-51
2022/09/18 12:42:39;;;;;;;3.07;1.20;;;15.40;95.40;;;;;;5037808;28;20464;-50
2022/09/18 12:45:37;;;;;;;4.23;1.40;;;15.20;95.10;;;;;;5037749;28;21122;-50
2022/09/18 12:48:20;;;;;;;3.23;1.50;;;15.50;94.60;;;;;;5037549;28;20514;-51
2022/09/18 12:51:08;;;;;;;6.27;1.83;;;15.40;94.70;;;;;;5037250;28;20475;-51
2022/09/18 12:53:49;;;;;;;6.83;1.97;;;15.30;94.60;;;;;;5037539;28;20434;-50
2022/09/18 12:56:39;;;;;;;3.70;1.60;;;15.40;94.20;;;;;;5037589;28;20467;-51
2022/09/18 12:59:24;;;;;;;1.93;0.90;;;15.40;93.80;;;;;;5036690;28;20431;-50
2022/09/18 13:01:54;;;;;;;3.83;1.20;;;15.30;93.10;;;;;;5037409;28;20517;-50
2022/09/18 13:04:27;;;;;;;2.80;1.63;;;15.10;93.30;;;;;;5037274;28;20468;-50
2022/09/18 13:06:57;;;;;;;6.60;1.90;;;15.70;93.60;;;;;;5037185;28;20956;-51
2022/09/18 13:09:29;;;;;;;5.33;1.80;;;15.50;93.30;;;;;;5036679;28;20442;-50
2022/09/18 13:12:00;;;;;;;5.73;1.70;;;15.40;93.20;;;;;;5037186;28;20478;-49
2022/09/18 13:14:33;;;;;;;5.93;1.50;;;15.20;93.10;;;;;;5037372;28;20431;-49